Farmville, VA (23901)

1:21 PM EDT on September 02, 2015 (GMT -0400)
Hampden-Sydney College | | Change Station
CLOSE
Current Station
Personal Weather Station
Location: Hampden-Sydney, VA
Elevation: 510 ft
Nearby Weather Stations

Elev 510 ft 37.24 °N, 78.46 °W | Updated 1 second ago

Partly Cloudy
Partly Cloudy
92.1 °F
Feels Like 99 °F
N
0.0
Wind Variable Wind from East
Gusts 6.0 mph

Today
High -- | Low -- °F
--% Chance of Precip.
Yesterday
High -- | Low -- °F
Precip. -- in
6:44 AM 7:41 PM
Waning Gibbous, 79% visible
Pressure 30.02 in
Visibility 10.0 miles
Clouds Clear
Heat Index 99 °F
Dew Point 71 °F
Humidity 51%
Rainfall 0.00 in
Snow Depth Not available.
UV 5.1 out of 12
Pollen 8.80 out of 12
Air Quality Not available.
Flu Activity Not available.
METAR KFVX 021655Z AUTO 05005KT 10SM CLR 34/18 A3002 RMK AO2 T03350175
Pressure 30.02 in
Visibility 10.0 miles
Clouds Clear
Heat Index 99 °F
Dew Point 71 °F
Humidity 51%
Rainfall 0.00 in
Snow Depth Not available.
UV 5.1 out of 12
Pollen 8.80 out of 12
Air Quality Not available.
Flu Activity Not available.
METAR KFVX 021655Z AUTO 05005KT 10SM CLR 34/18 A3002 RMK AO2 T03350175

10-Day Weather Forecast

×

Almanac

Astronomy

Sep. 02, 2015 Rise Set
Actual Time
Civil Twilight
Nautical Twilight
Astronomical Twilight
Moon
Length of Visible Light
Length of Day
Tomorrow will be .
, % of the Moon is Illuminated

Today's Extremes

State Highs State Lows

Community

WunderPhotos

Upload Photos

1,851,785 photos uploaded!

WunderBlogs® & News

Nearby

Air Quality

  Air Quality AQ Index Pollutant
Not available.

Snow Depth

Station Depth Elevation

Earthquake Activity

City Distance Mag. Time & Date
Minimum magnitude displayed is 2.5.

Coastal Water Temperatures

Place Temperature

Stations

Nearby Weather Stations

Station Location Temp. Windchill Dew Point Humidity Wind Precip. Elev Updated Type